createdAt,value
2023-05-14T00:02:29.663Z,12.75
2023-05-14T00:07:48.345Z,12.56
2023-05-14T00:13:08.890Z,12.37
2023-05-14T00:23:34.817Z,12
2023-05-14T00:28:53.133Z,11.94
2023-05-14T00:34:12.655Z,11.94
2023-05-14T00:39:31.412Z,11.81
2023-05-14T00:44:51.059Z,11.69
2023-05-14T00:50:10.097Z,11.63
2023-05-14T00:55:28.819Z,11.63
2023-05-14T01:00:47.786Z,11.5
2023-05-14T01:06:06.344Z,11.5
2023-05-14T01:11:25.022Z,11.63
2023-05-14T01:16:43.396Z,11.88
2023-05-14T01:22:02.350Z,12.06
2023-05-14T01:27:20.594Z,12.13
2023-05-14T01:32:39.333Z,12
2023-05-14T01:38:00.295Z,11.81
2023-05-14T01:43:15.909Z,11.69
2023-05-14T01:48:34.583Z,11.63
2023-05-14T01:53:53.383Z,11.69
2023-05-14T01:59:11.739Z,11.69
2023-05-14T02:04:30.439Z,11.63
2023-05-14T02:09:48.746Z,11.56
2023-05-14T02:15:08.475Z,11.5
2023-05-14T02:20:26.757Z,11.38
2023-05-14T02:25:45.065Z,11.38
2023-05-14T02:31:03.438Z,11.19
2023-05-14T02:36:22.255Z,11.19
2023-05-14T02:41:40.563Z,11.06
2023-05-14T02:46:58.845Z,10.88
2023-05-14T02:52:17.359Z,10.81
2023-05-14T02:57:35.599Z,10.81
2023-05-14T03:02:54.351Z,10.5
2023-05-14T03:08:13.035Z,10.56
2023-05-14T03:13:31.443Z,10.5
2023-05-14T03:18:50.363Z,10.44
2023-05-14T03:24:09.170Z,10.38
2023-05-14T03:29:28.726Z,10.25
2023-05-14T03:34:47.132Z,10.13
2023-05-14T03:40:06.627Z,10.06
2023-05-14T03:45:25.510Z,10.25
2023-05-14T03:50:45.206Z,9.94
2023-05-14T03:56:04.041Z,9.81
2023-05-14T04:06:22.606Z,9.69
2023-05-14T04:16:39.927Z,9.75
2023-05-14T04:22:00.597Z,9.88
2023-05-14T04:32:20.847Z,10.31
2023-05-14T04:42:39.694Z,10.69
2023-05-14T04:47:58.595Z,10.81
2023-05-14T04:53:17.031Z,10.88
2023-05-14T04:58:35.415Z,11.06
2023-05-14T05:03:55.034Z,11.31
2023-05-14T05:09:13.758Z,11.69
2023-05-14T05:14:32.554Z,11.94
2023-05-14T05:19:55.113Z,12.06
2023-05-14T05:25:13.320Z,11.94
2023-05-14T05:30:31.963Z,12.13
2023-05-14T05:35:50.295Z,12.19
2023-05-14T05:41:09.039Z,12.37
2023-05-14T05:46:27.814Z,12.56
2023-05-14T05:51:46.574Z,12.69
2023-05-14T05:57:04.914Z,12.63
2023-05-14T06:02:23.659Z,12.69
2023-05-14T06:07:42.439Z,12.88
2023-05-14T06:13:01.217Z,12.94
2023-05-14T06:18:20.099Z,13.44
2023-05-14T06:23:38.930Z,13.81
2023-05-14T06:28:57.727Z,14.13
2023-05-14T06:34:16.316Z,14.38
2023-05-14T06:39:35.197Z,14.87
2023-05-14T06:44:53.764Z,14.5
2023-05-14T06:50:12.084Z,14.56
2023-05-14T06:55:30.635Z,14.69
2023-05-14T07:00:49.015Z,14.75
2023-05-14T07:06:07.792Z,14.75
2023-05-14T07:11:26.595Z,14.87
2023-05-14T07:16:48.670Z,15.19
2023-05-14T07:22:08.024Z,15.38
2023-05-14T07:27:27.459Z,16.06
2023-05-14T07:32:46.721Z,16.5
2023-05-14T07:38:05.447Z,16.87
2023-05-14T07:43:25.062Z,17.25
2023-05-14T07:48:42.961Z,17.5
2023-05-14T07:54:01.394Z,17.94
2023-05-14T07:59:20.024Z,18.06
2023-05-14T08:04:38.650Z,18.25
2023-05-14T08:09:56.899Z,18.81
2023-05-14T08:15:15.461Z,19.44
2023-05-14T08:20:33.806Z,18.69
2023-05-14T08:25:52.453Z,18.06
2023-05-14T08:31:11.186Z,19.81
2023-05-14T08:36:29.906Z,20.56
2023-05-14T08:41:51.150Z,18.81
2023-05-14T08:47:09.764Z,19.94
2023-05-14T08:52:28.116Z,17.62
2023-05-14T08:57:46.302Z,16.62
2023-05-14T09:03:04.968Z,16.62
2023-05-14T09:08:23.637Z,16.75
2023-05-14T09:13:42.193Z,17.06
2023-05-14T09:19:00.520Z,16.75
2023-05-14T09:24:19.234Z,16.81
2023-05-14T09:29:38.165Z,16.94
2023-05-14T09:34:56.783Z,17.19
2023-05-14T09:40:15.618Z,17.62
2023-05-14T09:45:34.362Z,17.87
2023-05-14T09:50:54.135Z,18.19
2023-05-14T09:56:14.224Z,18.81
2023-05-14T10:01:33.273Z,18.69
2023-05-14T10:06:53.928Z,18.37
2023-05-14T10:12:12.449Z,18.37
2023-05-14T10:17:31.154Z,18.37
2023-05-14T10:22:50.757Z,18.37
2023-05-14T10:28:09.412Z,18.25
2023-05-14T10:33:27.912Z,18.06
2023-05-14T10:38:46.334Z,18.06
2023-05-14T10:44:04.493Z,18.19
2023-05-14T10:49:32.452Z,18.19
2023-05-14T10:54:41.550Z,18.25
2023-05-14T11:00:00.282Z,18.75
2023-05-14T11:05:19.239Z,18.81
2023-05-14T11:10:37.992Z,19.19
2023-05-14T11:15:56.829Z,19.75
2023-05-14T11:21:15.205Z,19.75
2023-05-14T11:26:34.031Z,19.87
2023-05-14T11:31:52.661Z,19.75
2023-05-14T11:37:10.935Z,20.06
2023-05-14T11:42:29.505Z,19.69
2023-05-14T11:47:48.013Z,19.06
2023-05-14T11:53:06.374Z,19
2023-05-14T11:58:25.142Z,19.69
2023-05-14T12:03:44.098Z,20.88
2023-05-14T12:09:03.568Z,22.06
2023-05-14T12:14:21.773Z,21.25
2023-05-14T12:19:39.947Z,20.25
2023-05-14T12:24:58.596Z,20.12
2023-05-14T12:30:21.524Z,22.94
2023-05-14T12:35:37.107Z,21.81
2023-05-14T12:40:54.505Z,22.37
2023-05-14T12:46:13.539Z,22.56
2023-05-14T12:51:32.383Z,22.94
2023-05-14T12:56:50.984Z,23.12
2023-05-14T13:02:10.719Z,23.19
2023-05-14T13:07:29.570Z,22.87
2023-05-14T13:12:48.222Z,23.56
2023-05-14T13:18:07.015Z,22.87
2023-05-14T13:23:25.211Z,22
2023-05-14T13:28:42.348Z,22.19
2023-05-14T13:34:01.332Z,22.62
2023-05-14T13:39:20.134Z,23.38
2023-05-14T13:44:38.318Z,22.75
2023-05-14T13:49:56.929Z,22.19
2023-05-14T13:55:14.429Z,20.62
2023-05-14T14:00:32.563Z,19.37
2023-05-14T14:05:50.540Z,18.87
2023-05-14T14:11:08.900Z,19.56
2023-05-14T14:16:27.643Z,20.5
2023-05-14T14:21:46.823Z,21.94
2023-05-14T14:27:05.400Z,21.25
2023-05-14T14:32:23.823Z,21.81
2023-05-14T14:37:42.601Z,22
2023-05-14T14:43:02.745Z,21.62
2023-05-14T14:48:21.296Z,21.81
2023-05-14T14:53:39.393Z,21.81
2023-05-14T14:58:57.722Z,21.81
2023-05-14T15:04:16.559Z,21.81
2023-05-14T15:09:35.206Z,21.94
2023-05-14T15:14:53.888Z,22
2023-05-14T15:20:12.737Z,21.94
2023-05-14T15:25:31.313Z,21.37
2023-05-14T15:30:49.897Z,21.87
2023-05-14T15:36:08.464Z,21.94
2023-05-14T15:41:27.377Z,21.69
2023-05-14T15:46:45.508Z,21.81
2023-05-14T15:52:03.729Z,21.75
2023-05-14T15:57:22.362Z,21.37
2023-05-14T16:02:40.802Z,21.37
2023-05-14T16:07:59.352Z,21.31
2023-05-14T16:13:18.082Z,21.06
2023-05-14T16:18:36.727Z,20.94
2023-05-14T16:23:55.589Z,20.69
2023-05-14T16:29:14.154Z,20.44
2023-05-14T16:34:32.074Z,20.06
2023-05-14T16:39:50.541Z,19.94
2023-05-14T16:45:10.142Z,19.87
2023-05-14T16:50:28.406Z,19.75
2023-05-14T16:55:47.959Z,19.56
2023-05-14T17:01:09.631Z,19.44
2023-05-14T17:06:26.201Z,19.44
2023-05-14T17:11:44.863Z,19.5
2023-05-14T17:17:03.040Z,19.31
2023-05-14T17:22:21.677Z,19.12
2023-05-14T17:27:40.261Z,19.06
2023-05-14T17:33:01.075Z,19.06
2023-05-14T17:38:19.132Z,19
2023-05-14T17:43:37.155Z,19.06
2023-05-14T17:48:55.721Z,18.69
2023-05-14T17:54:14.020Z,18.25
2023-05-14T17:59:32.042Z,18
2023-05-14T18:04:50.247Z,17.87
2023-05-14T18:10:08.705Z,17.87
2023-05-14T18:15:27.422Z,17.69
2023-05-14T18:20:45.961Z,17.62
2023-05-14T18:26:04.590Z,17.5
2023-05-14T18:31:23.122Z,17.37
2023-05-14T18:36:41.874Z,17.12
2023-05-14T18:42:00.421Z,17.12
2023-05-14T18:47:19.048Z,17.06
2023-05-14T18:52:37.643Z,16.81
2023-05-14T18:57:55.916Z,16.56
2023-05-14T19:03:14.495Z,16.44
2023-05-14T19:08:33.136Z,16.31
2023-05-14T19:13:51.691Z,16.19
2023-05-14T19:19:11.350Z,15.75
2023-05-14T19:24:29.487Z,14.81
2023-05-14T19:29:48.019Z,14.5
2023-05-14T19:35:06.522Z,14.13
2023-05-14T19:40:25.055Z,14.06
2023-05-14T19:45:43.725Z,13.62
2023-05-14T19:51:02.111Z,13.62
2023-05-14T19:56:21.966Z,13.56
2023-05-14T20:01:40.336Z,13.56
2023-05-14T20:06:59.339Z,13.62
2023-05-14T20:12:17.610Z,13.56
2023-05-14T20:17:35.945Z,13.56
2023-05-14T20:22:54.660Z,13.5
2023-05-14T20:28:12.922Z,13.31
2023-05-14T20:33:31.705Z,13.25
2023-05-14T20:38:50.209Z,13.13
2023-05-14T20:44:08.535Z,13.06
2023-05-14T20:49:26.745Z,13
2023-05-14T20:54:45.047Z,12.94
2023-05-14T21:00:03.341Z,13.06
2023-05-14T21:05:21.614Z,13
2023-05-14T21:10:40.034Z,13.06
2023-05-14T21:15:58.829Z,13
2023-05-14T21:21:17.288Z,12.94
2023-05-14T21:26:35.643Z,12.81
2023-05-14T21:31:53.825Z,12.88
2023-05-14T21:37:12.168Z,12.75
2023-05-14T21:42:30.186Z,12.5
2023-05-14T21:47:49.874Z,12.37
2023-05-14T21:53:08.458Z,12.19
2023-05-14T21:58:27.107Z,12.13
2023-05-14T22:03:45.373Z,12.06
2023-05-14T22:09:04.051Z,12.06
2023-05-14T22:14:23.400Z,12.06
2023-05-14T22:19:42.112Z,12.06
2023-05-14T22:25:00.804Z,12.06
2023-05-14T22:30:19.126Z,12.06
2023-05-14T22:35:37.836Z,12.13
2023-05-14T22:40:56.508Z,12.13
2023-05-14T22:46:15.150Z,11.88
2023-05-14T22:51:33.719Z,11.75
2023-05-14T22:56:52.389Z,11.75
2023-05-14T23:02:11.043Z,11.63
2023-05-14T23:07:29.722Z,11.56
2023-05-14T23:12:48.161Z,11.31
2023-05-14T23:18:06.835Z,11.31
2023-05-14T23:23:25.435Z,11.38
2023-05-14T23:28:44.035Z,11.31
2023-05-14T23:34:02.643Z,11.38
2023-05-14T23:39:21.305Z,11.38
2023-05-14T23:49:38.444Z,11.5
2023-05-14T23:54:57.156Z,11.56
